createdAt,value
2017-09-05T03:30:56.171Z,3.90
2017-09-05T03:33:23.769Z,4.07
2017-09-05T03:35:51.458Z,4.23
2017-09-05T03:38:19.091Z,4.47
2017-09-05T03:40:46.698Z,4.60
2017-09-05T03:43:14.641Z,4.30
2017-09-05T03:45:42.236Z,4.70
2017-09-05T03:48:09.849Z,5.17
2017-09-05T03:50:37.874Z,4.90
2017-09-05T03:53:05.468Z,4.97
2017-09-05T03:55:33.069Z,5.35
2017-09-05T03:58:00.676Z,5.27
2017-09-05T04:00:28.266Z,4.27
2017-09-05T04:02:56.316Z,4.77
2017-09-05T04:05:23.927Z,4.40
2017-09-05T04:07:51.568Z,4.50
2017-09-05T04:10:19.188Z,5.50
2017-09-05T04:12:46.808Z,5.60
2017-09-05T04:15:14.799Z,5.37
2017-09-05T04:17:42.412Z,4.97
2017-09-05T04:20:10.021Z,4.90
2017-09-05T04:22:37.643Z,5.10
2017-09-05T04:25:05.255Z,4.87
2017-09-05T04:27:33.208Z,5.30
2017-09-05T04:30:01.088Z,5.63
2017-09-05T04:32:28.685Z,4.73
2017-09-05T04:34:56.317Z,5.70
2017-09-05T04:37:23.927Z,5.57
2017-09-05T04:39:52.033Z,5.80
2017-09-05T04:42:19.649Z,5.40
2017-09-05T04:44:47.256Z,7.67
2017-09-05T04:47:15.216Z,5.47
2017-09-05T04:49:42.831Z,10.50
2017-09-05T04:52:10.428Z,7.70
2017-09-05T04:54:38.024Z,4.53
2017-09-05T04:57:05.655Z,3.97
2017-09-05T04:59:33.734Z,3.80
2017-09-05T05:02:01.348Z,3.80
2017-09-05T05:04:28.947Z,5.30
2017-09-05T05:06:56.587Z,4.93
2017-09-05T05:09:24.194Z,6.03
2017-09-05T05:11:52.155Z,5.23
2017-09-05T05:14:19.841Z,4.63
2017-09-05T05:16:48.214Z,4.97
2017-09-05T05:19:15.833Z,4.13
2017-09-05T05:21:43.438Z,4.00
2017-09-05T05:24:12.213Z,4.30
2017-09-05T05:26:39.812Z,4.90
2017-09-05T05:29:07.409Z,5.17
2017-09-05T05:31:35.029Z,5.70
2017-09-05T05:34:02.635Z,5.83
2017-09-05T05:36:30.615Z,5.27
2017-09-05T05:38:58.210Z,6.10
2017-09-05T05:41:25.802Z,5.00
2017-09-05T05:43:53.556Z,5.33
2017-09-05T05:46:21.155Z,4.60
2017-09-05T05:48:49.221Z,4.60
2017-09-05T05:51:16.833Z,5.40
2017-09-05T05:53:44.433Z,5.80
2017-09-05T05:56:12.111Z,5.43
2017-09-05T05:58:39.718Z,5.80
2017-09-05T06:01:07.680Z,5.53
2017-09-05T06:03:35.284Z,6.40
2017-09-05T06:06:02.891Z,5.53
2017-09-05T06:08:30.512Z,6.77
2017-09-05T06:10:58.127Z,6.57
2017-09-05T06:13:26.148Z,6.30
2017-09-05T06:15:53.777Z,6.53
2017-09-05T06:18:21.438Z,6.13
2017-09-05T06:20:49.058Z,6.47
2017-09-05T06:23:16.654Z,6.90
2017-09-05T06:25:44.610Z,6.23
2017-09-05T06:28:12.226Z,6.27
2017-09-05T06:30:39.821Z,6.27
2017-09-05T06:33:07.450Z,6.33
2017-09-05T06:35:35.059Z,6.40
2017-09-05T06:38:03.077Z,6.67
2017-09-05T06:40:30.689Z,6.47
2017-09-05T06:42:58.284Z,5.90
2017-09-05T06:45:25.909Z,6.80
2017-09-05T06:47:53.526Z,7.30
2017-09-05T06:50:21.599Z,7.33
2017-09-05T06:55:23.478Z,6.67
2017-09-05T06:57:51.091Z,6.40
2017-09-05T07:00:18.702Z,5.47
2017-09-05T07:02:46.333Z,6.43
2017-09-05T07:05:13.943Z,5.80
2017-09-05T07:07:41.909Z,6.40
2017-09-05T07:10:09.535Z,6.60
2017-09-05T07:12:37.138Z,6.37
2017-09-05T07:15:05.106Z,6.70
2017-09-05T07:17:32.706Z,6.60
2017-09-05T07:20:00.381Z,6.00
2017-09-05T07:22:28.022Z,7.50
2017-09-05T07:24:55.639Z,6.60
2017-09-05T07:27:24.406Z,5.47
2017-09-05T07:29:52.002Z,5.93
2017-09-05T07:32:19.597Z,6.70
2017-09-05T07:34:47.223Z,6.47
2017-09-05T07:37:14.817Z,6.90
2017-09-05T07:39:42.775Z,6.80
2017-09-05T07:42:10.401Z,6.73
2017-09-05T07:44:38.006Z,7.37
2017-09-05T07:47:05.651Z,6.57
2017-09-05T07:49:33.264Z,8.00
2017-09-05T07:52:01.229Z,6.87
2017-09-05T07:54:28.830Z,8.07
2017-09-05T07:56:56.548Z,7.43
2017-09-05T07:59:24.289Z,7.37
2017-09-05T08:01:51.896Z,7.30
2017-09-05T08:04:19.495Z,8.07
2017-09-05T08:06:47.139Z,7.50
2017-09-05T08:09:14.742Z,8.60
2017-09-05T08:11:42.720Z,8.47
2017-09-05T08:14:10.349Z,8.30
2017-09-05T08:16:37.975Z,10.27
2017-09-05T08:19:06.375Z,9.57
2017-09-05T08:21:33.997Z,10.00
2017-09-05T08:24:01.946Z,8.93
2017-09-05T08:26:29.593Z,9.00
2017-09-05T08:28:57.193Z,7.30
2017-09-05T08:31:24.805Z,8.50
2017-09-05T08:33:52.416Z,8.60
2017-09-05T08:36:20.472Z,9.30
2017-09-05T08:38:48.183Z,8.00
2017-09-05T08:41:15.791Z,8.70
2017-09-05T08:43:43.440Z,9.37
2017-09-05T08:46:11.050Z,8.57
2017-09-05T08:48:38.997Z,7.67
2017-09-05T08:51:06.599Z,8.77
2017-09-05T08:53:34.219Z,8.60
2017-09-05T08:56:02.017Z,8.70
2017-09-05T08:58:29.616Z,7.37
2017-09-05T09:00:57.555Z,9.40
2017-09-05T09:03:25.161Z,8.10
2017-09-05T09:05:52.752Z,7.90
2017-09-05T09:08:20.385Z,6.90
2017-09-05T09:10:47.985Z,7.40
2017-09-05T09:13:15.922Z,7.23
2017-09-05T09:15:43.523Z,7.37
2017-09-05T09:18:11.134Z,7.80
2017-09-05T09:20:38.751Z,7.47
2017-09-05T09:23:06.351Z,7.83
2017-09-05T09:25:34.323Z,6.80
2017-09-05T09:28:01.952Z,6.90
2017-09-05T09:30:29.564Z,7.50
2017-09-05T09:32:57.202Z,6.80
2017-09-05T09:35:24.795Z,7.50
2017-09-05T09:37:52.834Z,7.63
2017-09-05T09:40:20.432Z,6.60
2017-09-05T09:42:48.082Z,6.83
2017-09-05T09:45:15.693Z,6.50
2017-09-05T09:47:43.309Z,7.03
2017-09-05T09:50:11.272Z,6.30
2017-09-05T09:52:38.896Z,6.00
2017-09-05T09:55:06.513Z,5.47
2017-09-05T09:57:34.192Z,6.93
2017-09-05T10:00:01.800Z,6.87
2017-09-05T10:02:29.851Z,6.77
2017-09-05T10:04:57.450Z,5.53
2017-09-05T10:07:25.056Z,6.23
2017-09-05T10:09:52.683Z,5.00
2017-09-05T10:12:20.294Z,5.07
2017-09-05T10:14:48.274Z,5.33
2017-09-05T10:17:15.872Z,6.13
2017-09-05T10:19:43.484Z,5.47
2017-09-05T10:22:11.106Z,5.73
2017-09-05T10:24:38.715Z,6.07
2017-09-05T10:27:06.687Z,5.50
2017-09-05T10:29:34.290Z,5.80
2017-09-05T10:32:01.889Z,6.23
2017-09-05T10:34:29.657Z,4.83
2017-09-05T10:36:57.279Z,4.20
2017-09-05T10:39:25.285Z,4.37
2017-09-05T10:41:52.895Z,4.90
2017-09-05T10:44:20.511Z,5.00
2017-09-05T10:46:48.213Z,3.97
2017-09-05T10:49:15.929Z,4.27
2017-09-05T10:51:43.555Z,4.50
2017-09-05T10:54:11.614Z,4.53
2017-09-05T10:56:39.303Z,4.50
2017-09-05T10:59:06.912Z,4.50
2017-09-05T11:01:34.518Z,5.33
2017-09-05T11:04:02.384Z,4.97
2017-09-05T11:06:30.422Z,4.53
2017-09-05T11:08:58.022Z,4.40
2017-09-05T11:11:25.671Z,3.40
2017-09-05T11:13:53.317Z,4.40
2017-09-05T11:16:20.975Z,4.50
2017-09-05T11:18:49.002Z,3.70
2017-09-05T11:21:16.610Z,3.93
2017-09-05T11:23:44.214Z,4.07
2017-09-05T11:26:12.205Z,3.70
2017-09-05T11:28:39.824Z,4.20
2017-09-05T11:31:07.415Z,3.17
2017-09-05T11:33:35.146Z,3.60
2017-09-05T11:36:02.743Z,3.97
2017-09-05T11:38:30.737Z,3.40
2017-09-05T11:40:58.347Z,3.17
2017-09-05T11:43:25.963Z,2.47
2017-09-05T11:45:53.602Z,2.30
2017-09-05T11:48:21.212Z,2.97
2017-09-05T11:50:49.338Z,2.50
2017-09-05T11:53:16.951Z,2.50
2017-09-05T11:55:44.544Z,2.60
2017-09-05T11:58:12.158Z,2.50
2017-09-05T12:00:39.770Z,3.17
2017-09-05T12:03:07.755Z,2.43
2017-09-05T12:05:35.365Z,2.60
2017-09-05T12:08:02.973Z,2.60
2017-09-05T12:10:31.043Z,2.83
2017-09-05T12:12:58.656Z,3.07
2017-09-05T12:15:26.356Z,2.80
2017-09-05T12:17:54.313Z,2.50
2017-09-05T12:20:21.934Z,2.67
2017-09-05T12:22:49.595Z,2.57
2017-09-05T12:25:17.617Z,2.70
2017-09-05T12:27:45.217Z,2.20
2017-09-05T12:30:13.575Z,2.13
2017-09-05T12:32:41.634Z,2.57
2017-09-05T12:35:09.232Z,3.23
2017-09-05T12:37:36.833Z,3.77
2017-09-05T12:40:04.957Z,2.67
2017-09-05T12:42:32.544Z,2.73
2017-09-05T12:45:00.143Z,2.47
2017-09-05T12:47:27.784Z,2.43
2017-09-05T12:49:55.393Z,2.50
2017-09-05T12:52:23.443Z,2.60
2017-09-05T12:54:51.819Z,2.50
2017-09-05T12:57:19.422Z,3.20
2017-09-05T12:59:47.046Z,3.33
2017-09-05T13:02:14.644Z,2.50
2017-09-05T13:04:42.613Z,2.90
2017-09-05T13:07:10.218Z,2.73
2017-09-05T13:09:37.829Z,2.50
2017-09-05T13:12:05.466Z,3.00
2017-09-05T13:14:33.072Z,2.90
2017-09-05T13:17:01.084Z,3.00
2017-09-05T13:19:28.757Z,2.70
2017-09-05T13:21:57.158Z,2.63
2017-09-05T13:24:24.811Z,2.63
2017-09-05T13:26:52.428Z,2.80
2017-09-05T13:29:20.514Z,2.53
2017-09-05T13:31:48.125Z,2.53
2017-09-05T13:34:15.735Z,2.20
2017-09-05T13:36:43.713Z,2.80
2017-09-05T13:39:11.343Z,2.23
2017-09-05T13:41:38.962Z,3.03
2017-09-05T13:44:07.011Z,3.40
2017-09-05T13:46:34.630Z,2.83
2017-09-05T13:49:02.250Z,2.90
2017-09-05T13:51:29.867Z,2.53
2017-09-05T13:53:57.470Z,2.47
2017-09-05T13:56:25.503Z,3.07
2017-09-05T13:58:53.105Z,3.10
2017-09-05T14:01:20.710Z,2.60
2017-09-05T14:03:48.330Z,2.70
2017-09-05T14:06:15.941Z,2.30
2017-09-05T14:08:44.017Z,2.30
2017-09-05T14:11:11.821Z,2.30
2017-09-05T14:13:39.414Z,2.57
2017-09-05T14:16:07.034Z,2.50
2017-09-05T14:18:34.634Z,2.63
2017-09-05T14:21:02.754Z,2.40
2017-09-05T14:23:30.352Z,2.63
2017-09-05T14:25:57.953Z,2.47
2017-09-05T14:28:25.702Z,2.73
2017-09-05T14:30:53.338Z,2.40
2017-09-05T14:33:21.262Z,2.80
2017-09-05T14:35:48.861Z,2.50
2017-09-05T14:38:16.462Z,2.60
2017-09-05T14:40:44.100Z,2.90
2017-09-05T14:43:11.700Z,3.00
2017-09-05T14:45:39.670Z,2.50
2017-09-05T14:48:07.273Z,2.40
2017-09-05T14:50:34.869Z,2.33
2017-09-05T14:53:02.917Z,2.30
2017-09-05T14:55:30.526Z,2.37
2017-09-05T14:57:58.587Z,2.60
2017-09-05T15:00:26.191Z,2.90
2017-09-05T15:02:53.790Z,2.70
2017-09-05T15:05:21.398Z,3.10
2017-09-05T15:07:48.994Z,2.53
2017-09-05T15:10:16.903Z,3.07
2017-09-05T15:12:44.504Z,3.00
2017-09-05T15:15:12.135Z,2.60
2017-09-05T15:17:39.865Z,2.83
2017-09-05T15:20:07.476Z,2.50
2017-09-05T15:22:35.428Z,2.97
2017-09-05T15:25:03.095Z,2.87
2017-09-05T15:27:31.121Z,2.70
2017-09-05T15:29:58.818Z,2.70
2017-09-05T15:32:26.494Z,2.90
2017-09-05T15:34:55.789Z,2.60
2017-09-05T15:37:23.399Z,2.63
2017-09-05T15:39:51.097Z,3.50
2017-09-05T15:42:18.774Z,2.40
2017-09-05T15:44:46.394Z,3.13
2017-09-05T15:47:14.287Z,3.03
2017-09-05T15:49:41.908Z,2.83
2017-09-05T15:52:09.538Z,2.50
2017-09-05T15:54:37.163Z,3.20
2017-09-05T15:57:04.769Z,3.20
2017-09-05T15:59:32.806Z,3.23
2017-09-05T16:02:00.621Z,3.00
2017-09-05T16:04:28.254Z,3.40
2017-09-05T16:06:55.922Z,4.07
2017-09-05T16:09:23.532Z,4.07
2017-09-05T16:11:51.447Z,3.10
2017-09-05T16:14:19.127Z,2.90
2017-09-05T16:16:46.782Z,3.00
2017-09-05T16:19:16.686Z,3.10
2017-09-05T16:21:44.333Z,2.80
2017-09-05T16:24:11.944Z,3.10
2017-09-05T16:26:39.578Z,3.00
2017-09-05T16:29:07.184Z,2.90
2017-09-05T16:31:35.070Z,2.40
2017-09-05T16:34:02.678Z,3.17
2017-09-05T16:36:30.398Z,3.20
2017-09-05T16:38:58.375Z,2.80
2017-09-05T16:41:25.990Z,3.20
2017-09-05T16:43:53.624Z,3.57
2017-09-05T16:46:21.797Z,3.20
2017-09-05T16:48:49.408Z,3.40
2017-09-05T16:51:17.018Z,3.03
2017-09-05T16:53:44.624Z,3.80
2017-09-05T16:56:12.242Z,3.50
2017-09-05T16:58:39.851Z,3.67
2017-09-05T17:01:07.843Z,3.33
2017-09-05T17:03:35.447Z,4.00
2017-09-05T17:06:03.161Z,3.43
2017-09-05T17:08:30.828Z,3.40
2017-09-05T17:10:59.099Z,3.23
2017-09-05T17:13:27.136Z,3.00
2017-09-05T17:15:54.831Z,3.57
2017-09-05T17:18:22.494Z,3.70
2017-09-05T17:20:50.453Z,3.50
2017-09-05T17:23:18.938Z,3.70
2017-09-05T17:25:46.550Z,4.33
2017-09-05T17:28:14.497Z,4.30
2017-09-05T17:30:42.162Z,4.60
2017-09-05T17:33:09.861Z,5.40
2017-09-05T17:35:37.559Z,4.70
2017-09-05T17:38:05.626Z,3.87
2017-09-05T17:40:33.240Z,3.37
2017-09-05T17:43:00.890Z,4.13
2017-09-05T17:45:28.526Z,4.50
2017-09-05T17:47:56.926Z,2.97
2017-09-05T17:50:25.063Z,3.37
2017-09-05T17:52:52.671Z,3.53
2017-09-05T17:55:20.285Z,3.67
2017-09-05T17:57:47.946Z,3.00
2017-09-05T18:00:15.589Z,3.53
2017-09-05T18:02:43.614Z,3.43
2017-09-05T18:05:11.218Z,3.27
2017-09-05T18:07:38.838Z,3.33
2017-09-05T18:10:06.467Z,3.00
2017-09-05T18:12:34.083Z,3.90
2017-09-05T18:15:02.496Z,3.50
2017-09-05T18:17:30.181Z,4.10
2017-09-05T18:19:58.551Z,3.83
2017-09-05T18:22:26.188Z,3.90
2017-09-05T18:24:54.638Z,4.03
2017-09-05T18:27:22.609Z,4.30
2017-09-05T18:29:50.249Z,3.70
2017-09-05T18:32:17.892Z,3.87
2017-09-05T18:34:46.291Z,3.73
2017-09-05T18:37:13.896Z,3.67
2017-09-05T18:39:42.016Z,3.60
2017-09-05T18:42:10.358Z,4.63
2017-09-05T18:44:37.990Z,3.00
2017-09-05T18:47:05.649Z,4.00
2017-09-05T18:49:34.147Z,4.23
2017-09-05T18:52:02.292Z,4.90
2017-09-05T18:54:29.982Z,4.47
2017-09-05T18:56:57.640Z,4.20
2017-09-05T18:59:25.619Z,4.50
2017-09-05T19:01:53.304Z,4.63
2017-09-05T19:04:20.930Z,4.60
2017-09-05T19:06:48.937Z,4.20
2017-09-05T19:09:16.571Z,5.10
2017-09-05T19:11:44.191Z,4.60
2017-09-05T19:14:11.843Z,4.73
2017-09-05T19:16:39.534Z,4.70
2017-09-05T19:19:07.608Z,4.23
2017-09-05T19:21:35.278Z,4.83
2017-09-05T19:24:02.996Z,4.67
2017-09-05T19:26:30.674Z,4.30
2017-09-05T19:28:58.369Z,4.03
2017-09-05T19:31:26.380Z,4.57
2017-09-05T19:33:54.688Z,4.57
2017-09-05T19:36:22.380Z,4.30
2017-09-05T19:38:50.232Z,3.87
2017-09-05T19:41:17.853Z,4.10
2017-09-05T19:43:45.926Z,3.97
2017-09-05T19:46:14.406Z,4.10
2017-09-05T19:48:42.228Z,3.80
2017-09-05T19:51:10.282Z,3.83
2017-09-05T19:53:38.008Z,3.93
2017-09-05T19:56:05.637Z,4.20
2017-09-05T19:58:33.333Z,3.90
2017-09-05T20:01:00.983Z,3.80
2017-09-05T20:03:28.963Z,4.40
2017-09-05T20:05:56.585Z,4.87
2017-09-05T20:08:24.216Z,4.43
2017-09-05T20:10:51.872Z,4.20
2017-09-05T20:13:19.497Z,4.30
2017-09-05T20:15:47.495Z,4.83
2017-09-05T20:18:15.202Z,4.17
2017-09-05T20:20:42.806Z,4.90
2017-09-05T20:23:11.368Z,4.40
2017-09-05T20:25:38.990Z,3.93
2017-09-05T20:28:06.618Z,4.40
2017-09-05T20:30:34.532Z,3.97
2017-09-05T20:33:02.137Z,4.20
2017-09-05T20:35:30.091Z,4.30
2017-09-05T20:37:57.745Z,4.43
2017-09-05T20:40:25.372Z,4.50
2017-09-05T20:42:52.996Z,4.40
2017-09-05T20:45:20.624Z,4.13
2017-09-05T20:47:48.594Z,4.10
2017-09-05T20:50:16.198Z,4.30
2017-09-05T20:52:43.799Z,4.70
2017-09-05T20:55:11.783Z,4.37
2017-09-05T20:57:39.399Z,4.50
2017-09-05T21:00:07.375Z,4.30
2017-09-05T21:02:35.011Z,4.47
2017-09-05T21:05:02.640Z,5.20
2017-09-05T21:07:30.267Z,3.57
2017-09-05T21:09:57.934Z,4.03
2017-09-05T21:12:25.539Z,3.97
2017-09-05T21:14:53.163Z,4.70
2017-09-05T21:17:21.734Z,4.47
2017-09-05T21:19:49.404Z,4.43
2017-09-05T21:22:17.349Z,4.70
2017-09-05T21:24:44.968Z,5.00
2017-09-05T21:27:12.678Z,5.37
2017-09-05T21:29:40.323Z,5.40
2017-09-05T21:32:07.941Z,5.00
2017-09-05T21:34:36.013Z,5.20
2017-09-05T21:37:03.655Z,6.00
2017-09-05T21:39:31.268Z,5.80
2017-09-05T21:41:58.900Z,5.37
2017-09-05T21:44:26.511Z,4.70
2017-09-05T21:46:54.430Z,5.50
2017-09-05T21:49:22.043Z,5.30
2017-09-05T21:51:49.715Z,5.60
2017-09-05T21:54:17.374Z,5.97
2017-09-05T21:56:44.987Z,5.13
2017-09-05T21:59:13.640Z,4.77
2017-09-05T22:01:41.263Z,4.80
2017-09-05T22:04:08.863Z,5.00
2017-09-05T22:06:36.749Z,4.73
2017-09-05T22:09:04.431Z,5.30
2017-09-05T22:11:32.088Z,5.97
2017-09-05T22:14:05.500Z,5.87
2017-09-05T22:16:38.654Z,5.30
2017-09-05T22:19:12.131Z,5.70
2017-09-05T22:21:39.738Z,6.77
2017-09-05T22:24:07.342Z,7.17
2017-09-05T22:26:40.686Z,8.50
2017-09-05T22:29:10.060Z,6.77
